sensor_id;sensor_type;location;lat;lon;timestamp;P1;durP1;ratioP1;P2;durP2;ratioP2
49392;SDS011;35268;42.642;23.308;2023-12-20T00:01:23;46.75;;;20.42;;
49392;SDS011;35268;42.642;23.308;2023-12-20T00:03:48;38.47;;;19.05;;
49392;SDS011;35268;42.642;23.308;2023-12-20T00:06:13;52.45;;;23.50;;
49392;SDS011;35268;42.642;23.308;2023-12-20T00:08:39;49.65;;;20.27;;
49392;SDS011;35268;42.642;23.308;2023-12-20T00:11:04;45.17;;;19.38;;
49392;SDS011;35268;42.642;23.308;2023-12-20T00:13:30;44.35;;;18.67;;
49392;SDS011;35268;42.642;23.308;2023-12-20T00:15:55;43.30;;;19.70;;
49392;SDS011;35268;42.642;23.308;2023-12-20T00:18:21;35.55;;;17.88;;
49392;SDS011;35268;42.642;23.308;2023-12-20T00:20:46;47.03;;;20.05;;
49392;SDS011;35268;42.642;23.308;2023-12-20T00:23:12;45.33;;;19.98;;
49392;SDS011;35268;42.642;23.308;2023-12-20T00:25:37;42.38;;;19.05;;
49392;SDS011;35268;42.642;23.308;2023-12-20T00:28:03;44.58;;;18.80;;
49392;SDS011;35268;42.642;23.308;2023-12-20T00:30:28;38.35;;;16.15;;
49392;SDS011;35268;42.642;23.308;2023-12-20T00:32:54;37.30;;;17.42;;
49392;SDS011;35268;42.642;23.308;2023-12-20T00:35:20;32.33;;;15.82;;
49392;SDS011;35268;42.642;23.308;2023-12-20T00:37:45;36.78;;;16.42;;
49392;SDS011;35268;42.642;23.308;2023-12-20T00:40:11;37.25;;;14.70;;
49392;SDS011;35268;42.642;23.308;2023-12-20T00:42:36;32.95;;;15.15;;
49392;SDS011;35268;42.642;23.308;2023-12-20T00:45:02;34.10;;;15.35;;
49392;SDS011;35268;42.642;23.308;2023-12-20T00:47:29;31.33;;;11.57;;
49392;SDS011;35268;42.642;23.308;2023-12-20T00:49:55;34.25;;;12.93;;
49392;SDS011;35268;42.642;23.308;2023-12-20T00:52:20;25.10;;;11.82;;
49392;SDS011;35268;42.642;23.308;2023-12-20T00:54:47;32.60;;;13.18;;
49392;SDS011;35268;42.642;23.308;2023-12-20T00:57:13;33.63;;;12.75;;
49392;SDS011;35268;42.642;23.308;2023-12-20T00:59:39;28.80;;;12.05;;
49392;SDS011;35268;42.642;23.308;2023-12-20T01:02:04;27.65;;;13.23;;
49392;SDS011;35268;42.642;23.308;2023-12-20T01:04:42;33.97;;;13.43;;
49392;SDS011;35268;42.642;23.308;2023-12-20T01:07:10;25.67;;;12.35;;
49392;SDS011;35268;42.642;23.308;2023-12-20T01:09:35;27.45;;;11.63;;
49392;SDS011;35268;42.642;23.308;2023-12-20T01:12:01;32.20;;;14.60;;
49392;SDS011;35268;42.642;23.308;2023-12-20T01:14:26;26.13;;;13.40;;
49392;SDS011;35268;42.642;23.308;2023-12-20T01:16:51;39.03;;;14.13;;
49392;SDS011;35268;42.642;23.308;2023-12-20T01:19:17;31.55;;;15.13;;
49392;SDS011;35268;42.642;23.308;2023-12-20T01:21:42;29.80;;;13.73;;
49392;SDS011;35268;42.642;23.308;2023-12-20T01:24:07;28.88;;;13.57;;
49392;SDS011;35268;42.642;23.308;2023-12-20T01:26:33;29.60;;;13.65;;
49392;SDS011;35268;42.642;23.308;2023-12-20T01:28:58;25.42;;;11.63;;
49392;SDS011;35268;42.642;23.308;2023-12-20T01:31:24;30.15;;;14.45;;
49392;SDS011;35268;42.642;23.308;2023-12-20T01:33:49;26.80;;;12.35;;
49392;SDS011;35268;42.642;23.308;2023-12-20T01:36:14;30.05;;;14.35;;
49392;SDS011;35268;42.642;23.308;2023-12-20T01:38:40;42.25;;;17.33;;
49392;SDS011;35268;42.642;23.308;2023-12-20T01:41:05;33.13;;;16.60;;
49392;SDS011;35268;42.642;23.308;2023-12-20T01:43:30;37.03;;;17.25;;
49392;SDS011;35268;42.642;23.308;2023-12-20T01:45:57;44.50;;;20.35;;
49392;SDS011;35268;42.642;23.308;2023-12-20T01:48:23;38.17;;;17.92;;
49392;SDS011;35268;42.642;23.308;2023-12-20T01:50:49;40.80;;;19.20;;
49392;SDS011;35268;42.642;23.308;2023-12-20T01:53:16;36.75;;;18.70;;
49392;SDS011;35268;42.642;23.308;2023-12-20T01:55:43;42.40;;;17.50;;
49392;SDS011;35268;42.642;23.308;2023-12-20T01:58:09;37.67;;;16.70;;
49392;SDS011;35268;42.642;23.308;2023-12-20T02:00:36;40.10;;;19.88;;
49392;SDS011;35268;42.642;23.308;2023-12-20T02:03:02;41.08;;;22.05;;
49392;SDS011;35268;42.642;23.308;2023-12-20T02:05:31;38.38;;;18.73;;
49392;SDS011;35268;42.642;23.308;2023-12-20T02:07:57;27.77;;;14.25;;
49392;SDS011;35268;42.642;23.308;2023-12-20T02:10:23;35.53;;;17.52;;
49392;SDS011;35268;42.642;23.308;2023-12-20T02:12:49;36.20;;;18.17;;
49392;SDS011;35268;42.642;23.308;2023-12-20T02:15:15;32.70;;;16.08;;
49392;SDS011;35268;42.642;23.308;2023-12-20T02:17:40;35.95;;;17.02;;
49392;SDS011;35268;42.642;23.308;2023-12-20T02:20:06;35.08;;;16.58;;
49392;SDS011;35268;42.642;23.308;2023-12-20T02:22:31;32.63;;;15.90;;
49392;SDS011;35268;42.642;23.308;2023-12-20T02:24:57;48.42;;;19.83;;
49392;SDS011;35268;42.642;23.308;2023-12-20T02:27:23;50.17;;;20.23;;
49392;SDS011;35268;42.642;23.308;2023-12-20T02:29:48;39.38;;;17.77;;
49392;SDS011;35268;42.642;23.308;2023-12-20T02:32:15;38.08;;;15.95;;
49392;SDS011;35268;42.642;23.308;2023-12-20T02:34:41;33.00;;;16.70;;
49392;SDS011;35268;42.642;23.308;2023-12-20T02:37:07;35.65;;;16.98;;
49392;SDS011;35268;42.642;23.308;2023-12-20T02:39:32;36.92;;;16.92;;
49392;SDS011;35268;42.642;23.308;2023-12-20T02:41:58;33.75;;;15.27;;
49392;SDS011;35268;42.642;23.308;2023-12-20T02:44:23;25.58;;;11.65;;
49392;SDS011;35268;42.642;23.308;2023-12-20T02:46:49;30.13;;;14.63;;
49392;SDS011;35268;42.642;23.308;2023-12-20T02:49:15;39.03;;;16.40;;
49392;SDS011;35268;42.642;23.308;2023-12-20T02:51:40;35.70;;;16.20;;
49392;SDS011;35268;42.642;23.308;2023-12-20T02:54:05;38.10;;;17.55;;
49392;SDS011;35268;42.642;23.308;2023-12-20T02:56:33;30.33;;;14.20;;
49392;SDS011;35268;42.642;23.308;2023-12-20T02:58:59;38.20;;;17.17;;
49392;SDS011;35268;42.642;23.308;2023-12-20T03:01:24;38.78;;;16.80;;
49392;SDS011;35268;42.642;23.308;2023-12-20T03:03:50;39.85;;;18.23;;
49392;SDS011;35268;42.642;23.308;2023-12-20T03:06:16;38.05;;;18.33;;
49392;SDS011;35268;42.642;23.308;2023-12-20T03:08:43;38.70;;;17.85;;
49392;SDS011;35268;42.642;23.308;2023-12-20T03:11:08;37.08;;;17.02;;
49392;SDS011;35268;42.642;23.308;2023-12-20T03:13:34;34.67;;;17.15;;
49392;SDS011;35268;42.642;23.308;2023-12-20T03:15:59;46.90;;;20.10;;
49392;SDS011;35268;42.642;23.308;2023-12-20T03:18:25;47.72;;;20.33;;
49392;SDS011;35268;42.642;23.308;2023-12-20T03:20:50;41.08;;;20.08;;
49392;SDS011;35268;42.642;23.308;2023-12-20T03:23:16;40.53;;;19.08;;
49392;SDS011;35268;42.642;23.308;2023-12-20T03:25:41;43.00;;;20.50;;
49392;SDS011;35268;42.642;23.308;2023-12-20T03:28:06;45.33;;;20.02;;
49392;SDS011;35268;42.642;23.308;2023-12-20T03:30:32;41.28;;;17.52;;
49392;SDS011;35268;42.642;23.308;2023-12-20T03:32:57;38.40;;;18.58;;
49392;SDS011;35268;42.642;23.308;2023-12-20T03:35:22;48.47;;;17.90;;
49392;SDS011;35268;42.642;23.308;2023-12-20T03:37:48;43.92;;;17.90;;
49392;SDS011;35268;42.642;23.308;2023-12-20T03:40:13;28.38;;;14.63;;
49392;SDS011;35268;42.642;23.308;2023-12-20T03:42:38;28.65;;;13.05;;
49392;SDS011;35268;42.642;23.308;2023-12-20T03:45:04;25.23;;;10.88;;
49392;SDS011;35268;42.642;23.308;2023-12-20T03:47:30;17.13;;;9.05;;
49392;SDS011;35268;42.642;23.308;2023-12-20T03:49:55;18.67;;;9.90;;
49392;SDS011;35268;42.642;23.308;2023-12-20T03:52:20;22.92;;;9.85;;
49392;SDS011;35268;42.642;23.308;2023-12-20T03:54:46;19.92;;;9.98;;
49392;SDS011;35268;42.642;23.308;2023-12-20T03:57:11;25.75;;;10.35;;
49392;SDS011;35268;42.642;23.308;2023-12-20T03:59:37;24.63;;;9.93;;
49392;SDS011;35268;42.642;23.308;2023-12-20T04:02:03;27.02;;;10.13;;
49392;SDS011;35268;42.642;23.308;2023-12-20T04:04:29;22.75;;;10.75;;
49392;SDS011;35268;42.642;23.308;2023-12-20T04:06:55;27.48;;;12.43;;
49392;SDS011;35268;42.642;23.308;2023-12-20T04:09:20;35.45;;;14.13;;
49392;SDS011;35268;42.642;23.308;2023-12-20T04:11:45;34.40;;;15.70;;
49392;SDS011;35268;42.642;23.308;2023-12-20T04:14:11;37.70;;;16.58;;
49392;SDS011;35268;42.642;23.308;2023-12-20T04:16:36;35.83;;;16.05;;
49392;SDS011;35268;42.642;23.308;2023-12-20T04:19:02;42.70;;;18.20;;
49392;SDS011;35268;42.642;23.308;2023-12-20T04:21:27;65.03;;;22.70;;
49392;SDS011;35268;42.642;23.308;2023-12-20T04:23:53;67.38;;;23.35;;
49392;SDS011;35268;42.642;23.308;2023-12-20T04:26:18;64.25;;;26.48;;
49392;SDS011;35268;42.642;23.308;2023-12-20T04:28:43;68.28;;;24.40;;
49392;SDS011;35268;42.642;23.308;2023-12-20T04:31:09;60.72;;;21.23;;
49392;SDS011;35268;42.642;23.308;2023-12-20T04:33:34;49.10;;;19.35;;
49392;SDS011;35268;42.642;23.308;2023-12-20T04:35:59;61.55;;;20.55;;
49392;SDS011;35268;42.642;23.308;2023-12-20T04:38:25;86.88;;;31.25;;
49392;SDS011;35268;42.642;23.308;2023-12-20T04:40:51;79.75;;;26.38;;
49392;SDS011;35268;42.642;23.308;2023-12-20T04:43:16;52.63;;;19.42;;
49392;SDS011;35268;42.642;23.308;2023-12-20T04:45:42;55.58;;;19.83;;
49392;SDS011;35268;42.642;23.308;2023-12-20T04:48:07;67.65;;;21.05;;
49392;SDS011;35268;42.642;23.308;2023-12-20T04:50:33;90.78;;;27.02;;
49392;SDS011;35268;42.642;23.308;2023-12-20T04:52:58;66.35;;;21.15;;
49392;SDS011;35268;42.642;23.308;2023-12-20T04:55:24;47.72;;;16.13;;
49392;SDS011;35268;42.642;23.308;2023-12-20T04:57:49;59.35;;;19.25;;
49392;SDS011;35268;42.642;23.308;2023-12-20T05:00:14;66.38;;;20.70;;
49392;SDS011;35268;42.642;23.308;2023-12-20T05:02:40;73.00;;;21.33;;
49392;SDS011;35268;42.642;23.308;2023-12-20T05:05:06;69.00;;;21.40;;
49392;SDS011;35268;42.642;23.308;2023-12-20T05:07:32;60.35;;;19.98;;
49392;SDS011;35268;42.642;23.308;2023-12-20T05:09:58;68.30;;;21.60;;
49392;SDS011;35268;42.642;23.308;2023-12-20T05:12:23;67.78;;;20.48;;
49392;SDS011;35268;42.642;23.308;2023-12-20T05:14:49;64.90;;;20.63;;
49392;SDS011;35268;42.642;23.308;2023-12-20T05:17:14;63.38;;;18.08;;
49392;SDS011;35268;42.642;23.308;2023-12-20T05:19:40;78.00;;;22.98;;
49392;SDS011;35268;42.642;23.308;2023-12-20T05:22:05;70.05;;;23.33;;
49392;SDS011;35268;42.642;23.308;2023-12-20T05:24:31;63.20;;;21.13;;
49392;SDS011;35268;42.642;23.308;2023-12-20T05:26:56;61.25;;;21.08;;
49392;SDS011;35268;42.642;23.308;2023-12-20T05:29:22;54.45;;;20.27;;
49392;SDS011;35268;42.642;23.308;2023-12-20T05:31:47;62.17;;;19.58;;
49392;SDS011;35268;42.642;23.308;2023-12-20T05:34:12;48.08;;;18.17;;
49392;SDS011;35268;42.642;23.308;2023-12-20T05:36:38;37.78;;;15.95;;
49392;SDS011;35268;42.642;23.308;2023-12-20T05:39:04;41.88;;;17.42;;
49392;SDS011;35268;42.642;23.308;2023-12-20T05:41:30;41.08;;;16.60;;
49392;SDS011;35268;42.642;23.308;2023-12-20T05:43:55;44.72;;;17.63;;
49392;SDS011;35268;42.642;23.308;2023-12-20T05:46:23;44.17;;;19.63;;
49392;SDS011;35268;42.642;23.308;2023-12-20T05:48:48;44.30;;;18.20;;
49392;SDS011;35268;42.642;23.308;2023-12-20T05:51:14;46.45;;;22.23;;
49392;SDS011;35268;42.642;23.308;2023-12-20T05:53:39;58.25;;;23.90;;
49392;SDS011;35268;42.642;23.308;2023-12-20T05:56:05;53.22;;;26.20;;
49392;SDS011;35268;42.642;23.308;2023-12-20T05:58:31;54.25;;;23.33;;
49392;SDS011;35268;42.642;23.308;2023-12-20T06:00:57;56.50;;;21.75;;
49392;SDS011;35268;42.642;23.308;2023-12-20T06:03:22;53.38;;;23.23;;
49392;SDS011;35268;42.642;23.308;2023-12-20T06:05:48;53.10;;;21.40;;
49392;SDS011;35268;42.642;23.308;2023-12-20T06:08:13;87.28;;;36.00;;
49392;SDS011;35268;42.642;23.308;2023-12-20T06:10:39;78.68;;;33.45;;
49392;SDS011;35268;42.642;23.308;2023-12-20T06:13:05;96.38;;;38.88;;
49392;SDS011;35268;42.642;23.308;2023-12-20T06:15:31;98.97;;;39.40;;
49392;SDS011;35268;42.642;23.308;2023-12-20T06:17:57;101.95;;;41.15;;
49392;SDS011;35268;42.642;23.308;2023-12-20T06:20:22;88.68;;;38.72;;
49392;SDS011;35268;42.642;23.308;2023-12-20T06:22:48;73.82;;;33.65;;
49392;SDS011;35268;42.642;23.308;2023-12-20T06:25:13;80.80;;;32.85;;
49392;SDS011;35268;42.642;23.308;2023-12-20T06:27:39;72.95;;;33.20;;
49392;SDS011;35268;42.642;23.308;2023-12-20T06:30:06;83.93;;;34.10;;
49392;SDS011;35268;42.642;23.308;2023-12-20T06:32:32;80.07;;;34.45;;
49392;SDS011;35268;42.642;23.308;2023-12-20T06:34:57;84.00;;;32.42;;
49392;SDS011;35268;42.642;23.308;2023-12-20T06:37:23;95.97;;;41.50;;
49392;SDS011;35268;42.642;23.308;2023-12-20T06:39:48;92.53;;;41.22;;
49392;SDS011;35268;42.642;23.308;2023-12-20T06:42:13;104.93;;;47.80;;
49392;SDS011;35268;42.642;23.308;2023-12-20T06:44:39;95.75;;;43.63;;
49392;SDS011;35268;42.642;23.308;2023-12-20T06:47:05;107.22;;;47.33;;
49392;SDS011;35268;42.642;23.308;2023-12-20T06:49:39;114.40;;;49.13;;
49392;SDS011;35268;42.642;23.308;2023-12-20T06:52:05;105.68;;;47.88;;
49392;SDS011;35268;42.642;23.308;2023-12-20T06:54:31;117.43;;;50.45;;
49392;SDS011;35268;42.642;23.308;2023-12-20T06:56:56;124.68;;;53.50;;
49392;SDS011;35268;42.642;23.308;2023-12-20T06:59:21;109.13;;;49.90;;
49392;SDS011;35268;42.642;23.308;2023-12-20T07:01:47;118.88;;;52.65;;
49392;SDS011;35268;42.642;23.308;2023-12-20T07:04:14;115.05;;;51.50;;
49392;SDS011;35268;42.642;23.308;2023-12-20T07:06:39;108.88;;;50.05;;
49392;SDS011;35268;42.642;23.308;2023-12-20T07:09:04;118.93;;;52.28;;
49392;SDS011;35268;42.642;23.308;2023-12-20T07:11:30;127.82;;;52.75;;
49392;SDS011;35268;42.642;23.308;2023-12-20T07:13:55;120.57;;;54.38;;
49392;SDS011;35268;42.642;23.308;2023-12-20T07:16:21;116.32;;;54.30;;
49392;SDS011;35268;42.642;23.308;2023-12-20T07:18:47;125.72;;;54.38;;
49392;SDS011;35268;42.642;23.308;2023-12-20T07:21:13;114.18;;;53.17;;
49392;SDS011;35268;42.642;23.308;2023-12-20T07:23:38;106.55;;;49.75;;
49392;SDS011;35268;42.642;23.308;2023-12-20T07:26:03;104.70;;;51.50;;
49392;SDS011;35268;42.642;23.308;2023-12-20T07:28:29;118.22;;;55.15;;
49392;SDS011;35268;42.642;23.308;2023-12-20T07:30:54;114.82;;;52.95;;
49392;SDS011;35268;42.642;23.308;2023-12-20T07:33:20;115.88;;;53.83;;
49392;SDS011;35268;42.642;23.308;2023-12-20T07:35:45;119.75;;;51.80;;
49392;SDS011;35268;42.642;23.308;2023-12-20T07:38:11;124.28;;;55.05;;
49392;SDS011;35268;42.642;23.308;2023-12-20T07:40:37;107.78;;;53.22;;
49392;SDS011;35268;42.642;23.308;2023-12-20T07:43:03;111.43;;;51.30;;
49392;SDS011;35268;42.642;23.308;2023-12-20T07:45:28;112.03;;;54.65;;
49392;SDS011;35268;42.642;23.308;2023-12-20T07:47:53;114.70;;;54.55;;
49392;SDS011;35268;42.642;23.308;2023-12-20T07:50:19;113.72;;;54.13;;
49392;SDS011;35268;42.642;23.308;2023-12-20T07:52:45;131.93;;;56.17;;
49392;SDS011;35268;42.642;23.308;2023-12-20T07:55:10;136.43;;;59.67;;
49392;SDS011;35268;42.642;23.308;2023-12-20T07:57:35;128.52;;;58.10;;
49392;SDS011;35268;42.642;23.308;2023-12-20T08:00:01;125.07;;;58.63;;
49392;SDS011;35268;42.642;23.308;2023-12-20T08:02:28;126.90;;;58.28;;
49392;SDS011;35268;42.642;23.308;2023-12-20T08:04:54;130.05;;;61.05;;
49392;SDS011;35268;42.642;23.308;2023-12-20T08:07:19;118.55;;;58.20;;
49392;SDS011;35268;42.642;23.308;2023-12-20T08:09:45;156.15;;;65.95;;
49392;SDS011;35268;42.642;23.308;2023-12-20T08:12:10;134.07;;;61.17;;
49392;SDS011;35268;42.642;23.308;2023-12-20T08:14:36;140.20;;;61.17;;
49392;SDS011;35268;42.642;23.308;2023-12-20T08:17:02;124.13;;;59.42;;
49392;SDS011;35268;42.642;23.308;2023-12-20T08:19:27;120.50;;;54.30;;
49392;SDS011;35268;42.642;23.308;2023-12-20T08:21:53;123.63;;;58.05;;
49392;SDS011;35268;42.642;23.308;2023-12-20T08:24:18;125.38;;;57.45;;
49392;SDS011;35268;42.642;23.308;2023-12-20T08:26:44;116.47;;;57.40;;
49392;SDS011;35268;42.642;23.308;2023-12-20T08:29:12;125.25;;;57.47;;
49392;SDS011;35268;42.642;23.308;2023-12-20T08:31:38;121.43;;;57.67;;
49392;SDS011;35268;42.642;23.308;2023-12-20T08:34:04;135.73;;;59.72;;
49392;SDS011;35268;42.642;23.308;2023-12-20T08:36:29;122.70;;;58.97;;
49392;SDS011;35268;42.642;23.308;2023-12-20T08:38:54;128.43;;;58.38;;
49392;SDS011;35268;42.642;23.308;2023-12-20T08:41:20;129.85;;;59.85;;
49392;SDS011;35268;42.642;23.308;2023-12-20T08:43:45;117.90;;;57.08;;
49392;SDS011;35268;42.642;23.308;2023-12-20T08:46:11;129.98;;;59.03;;
49392;SDS011;35268;42.642;23.308;2023-12-20T08:48:37;136.27;;;60.22;;
49392;SDS011;35268;42.642;23.308;2023-12-20T08:51:03;131.00;;;57.90;;
49392;SDS011;35268;42.642;23.308;2023-12-20T08:53:29;123.85;;;59.22;;
49392;SDS011;35268;42.642;23.308;2023-12-20T08:55:54;132.32;;;61.17;;
49392;SDS011;35268;42.642;23.308;2023-12-20T08:58:20;132.15;;;61.50;;
49392;SDS011;35268;42.642;23.308;2023-12-20T09:00:45;140.60;;;60.45;;
49392;SDS011;35268;42.642;23.308;2023-12-20T09:03:11;146.60;;;64.15;;
49392;SDS011;35268;42.642;23.308;2023-12-20T09:05:36;128.85;;;62.22;;
49392;SDS011;35268;42.642;23.308;2023-12-20T09:08:01;137.00;;;63.80;;
49392;SDS011;35268;42.642;23.308;2023-12-20T09:10:27;132.40;;;62.45;;
49392;SDS011;35268;42.642;23.308;2023-12-20T09:12:53;127.35;;;60.95;;
49392;SDS011;35268;42.642;23.308;2023-12-20T09:15:25;133.52;;;63.08;;
49392;SDS011;35268;42.642;23.308;2023-12-20T09:17:52;122.25;;;60.75;;
49392;SDS011;35268;42.642;23.308;2023-12-20T09:20:18;121.60;;;60.92;;
49392;SDS011;35268;42.642;23.308;2023-12-20T09:22:44;134.02;;;63.38;;
49392;SDS011;35268;42.642;23.308;2023-12-20T09:25:10;123.22;;;58.25;;
49392;SDS011;35268;42.642;23.308;2023-12-20T09:27:36;122.45;;;57.80;;
49392;SDS011;35268;42.642;23.308;2023-12-20T09:30:02;128.38;;;61.72;;
49392;SDS011;35268;42.642;23.308;2023-12-20T09:32:29;125.75;;;56.53;;
49392;SDS011;35268;42.642;23.308;2023-12-20T09:34:54;121.45;;;58.58;;
49392;SDS011;35268;42.642;23.308;2023-12-20T09:37:20;116.97;;;56.28;;
49392;SDS011;35268;42.642;23.308;2023-12-20T09:39:45;137.00;;;62.63;;
49392;SDS011;35268;42.642;23.308;2023-12-20T09:42:11;129.85;;;62.08;;
49392;SDS011;35268;42.642;23.308;2023-12-20T09:44:42;143.10;;;64.55;;
49392;SDS011;35268;42.642;23.308;2023-12-20T09:47:09;120.75;;;57.67;;
49392;SDS011;35268;42.642;23.308;2023-12-20T09:49:35;133.55;;;58.15;;
49392;SDS011;35268;42.642;23.308;2023-12-20T09:52:02;104.75;;;52.10;;
49392;SDS011;35268;42.642;23.308;2023-12-20T09:54:31;102.07;;;51.20;;
49392;SDS011;35268;42.642;23.308;2023-12-20T09:56:56;101.82;;;50.95;;
49392;SDS011;35268;42.642;23.308;2023-12-20T09:59:22;97.30;;;50.00;;
49392;SDS011;35268;42.642;23.308;2023-12-20T10:01:47;98.25;;;46.85;;
49392;SDS011;35268;42.642;23.308;2023-12-20T10:04:13;96.40;;;44.05;;
49392;SDS011;35268;42.642;23.308;2023-12-20T10:06:42;86.82;;;43.10;;
49392;SDS011;35268;42.642;23.308;2023-12-20T10:09:11;92.38;;;40.45;;
49392;SDS011;35268;42.642;23.308;2023-12-20T10:11:37;83.30;;;38.45;;
49392;SDS011;35268;42.642;23.308;2023-12-20T10:14:04;84.32;;;40.17;;
49392;SDS011;35268;42.642;23.308;2023-12-20T10:16:30;86.85;;;40.22;;
49392;SDS011;35268;42.642;23.308;2023-12-20T10:18:57;88.18;;;40.65;;
49392;SDS011;35268;42.642;23.308;2023-12-20T10:21:23;81.88;;;39.60;;
49392;SDS011;35268;42.642;23.308;2023-12-20T10:23:51;87.70;;;41.13;;
49392;SDS011;35268;42.642;23.308;2023-12-20T10:26:24;90.03;;;44.25;;
49392;SDS011;35268;42.642;23.308;2023-12-20T10:28:53;103.45;;;45.25;;
49392;SDS011;35268;42.642;23.308;2023-12-20T10:31:30;99.45;;;44.22;;
49392;SDS011;35268;42.642;23.308;2023-12-20T10:34:00;98.88;;;44.88;;
49392;SDS011;35268;42.642;23.308;2023-12-20T10:36:28;95.30;;;46.70;;
49392;SDS011;35268;42.642;23.308;2023-12-20T10:38:55;91.97;;;47.50;;
49392;SDS011;35268;42.642;23.308;2023-12-20T10:44:03;105.55;;;49.80;;
49392;SDS011;35268;42.642;23.308;2023-12-20T10:46:33;107.57;;;52.83;;
49392;SDS011;35268;42.642;23.308;2023-12-20T10:48:59;114.20;;;53.63;;
49392;SDS011;35268;42.642;23.308;2023-12-20T10:51:27;109.47;;;52.63;;
49392;SDS011;35268;42.642;23.308;2023-12-20T10:53:55;117.03;;;55.85;;
49392;SDS011;35268;42.642;23.308;2023-12-20T10:56:21;111.55;;;53.80;;
49392;SDS011;35268;42.642;23.308;2023-12-20T10:58:48;114.68;;;56.08;;
49392;SDS011;35268;42.642;23.308;2023-12-20T11:01:15;111.95;;;54.65;;
49392;SDS011;35268;42.642;23.308;2023-12-20T11:03:50;120.22;;;58.03;;
49392;SDS011;35268;42.642;23.308;2023-12-20T11:08:52;121.97;;;57.33;;
49392;SDS011;35268;42.642;23.308;2023-12-20T11:11:43;119.93;;;54.75;;
49392;SDS011;35268;42.642;23.308;2023-12-20T11:14:14;124.72;;;55.60;;
49392;SDS011;35268;42.642;23.308;2023-12-20T11:16:44;105.68;;;51.83;;
49392;SDS011;35268;42.642;23.308;2023-12-20T11:19:11;105.35;;;52.08;;
49392;SDS011;35268;42.642;23.308;2023-12-20T11:21:38;114.20;;;53.20;;
49392;SDS011;35268;42.642;23.308;2023-12-20T11:24:05;104.03;;;49.20;;
49392;SDS011;35268;42.642;23.308;2023-12-20T11:26:31;105.60;;;50.05;;
49392;SDS011;35268;42.642;23.308;2023-12-20T11:32:49;115.85;;;45.75;;
49392;SDS011;35268;42.642;23.308;2023-12-20T11:34:53;99.25;;;43.58;;
49392;SDS011;35268;42.642;23.308;2023-12-20T11:37:20;96.55;;;43.92;;
49392;SDS011;35268;42.642;23.308;2023-12-20T11:40:05;97.38;;;44.55;;
49392;SDS011;35268;42.642;23.308;2023-12-20T11:42:42;96.80;;;44.05;;
49392;SDS011;35268;42.642;23.308;2023-12-20T11:45:09;97.30;;;44.05;;
49392;SDS011;35268;42.642;23.308;2023-12-20T11:47:35;96.78;;;46.13;;
49392;SDS011;35268;42.642;23.308;2023-12-20T11:50:01;101.45;;;45.72;;
49392;SDS011;35268;42.642;23.308;2023-12-20T11:52:29;93.63;;;44.75;;
49392;SDS011;35268;42.642;23.308;2023-12-20T11:54:55;97.93;;;47.97;;
49392;SDS011;35268;42.642;23.308;2023-12-20T11:57:20;91.05;;;44.83;;
49392;SDS011;35268;42.642;23.308;2023-12-20T11:59:47;97.30;;;45.55;;
49392;SDS011;35268;42.642;23.308;2023-12-20T12:02:12;95.25;;;46.05;;
49392;SDS011;35268;42.642;23.308;2023-12-20T12:04:40;99.53;;;46.95;;
49392;SDS011;35268;42.642;23.308;2023-12-20T12:07:06;92.47;;;46.45;;
49392;SDS011;35268;42.642;23.308;2023-12-20T12:09:32;99.65;;;46.22;;
49392;SDS011;35268;42.642;23.308;2023-12-20T12:11:58;105.05;;;46.33;;
49392;SDS011;35268;42.642;23.308;2023-12-20T12:14:24;102.75;;;47.25;;
49392;SDS011;35268;42.642;23.308;2023-12-20T12:16:49;105.50;;;46.83;;
49392;SDS011;35268;42.642;23.308;2023-12-20T12:19:25;95.28;;;46.20;;
49392;SDS011;35268;42.642;23.308;2023-12-20T12:21:51;94.32;;;46.13;;
49392;SDS011;35268;42.642;23.308;2023-12-20T12:24:38;104.80;;;45.10;;
49392;SDS011;35268;42.642;23.308;2023-12-20T12:27:07;100.80;;;46.58;;
49392;SDS011;35268;42.642;23.308;2023-12-20T12:29:33;100.82;;;46.58;;
49392;SDS011;35268;42.642;23.308;2023-12-20T12:32:00;103.15;;;46.25;;
49392;SDS011;35268;42.642;23.308;2023-12-20T12:34:28;100.90;;;44.70;;
49392;SDS011;35268;42.642;23.308;2023-12-20T12:36:53;95.38;;;44.67;;
49392;SDS011;35268;42.642;23.308;2023-12-20T12:39:19;87.72;;;42.83;;
49392;SDS011;35268;42.642;23.308;2023-12-20T12:41:44;87.30;;;41.72;;
49392;SDS011;35268;42.642;23.308;2023-12-20T12:44:10;94.07;;;44.15;;
49392;SDS011;35268;42.642;23.308;2023-12-20T12:46:35;96.72;;;43.30;;
49392;SDS011;35268;42.642;23.308;2023-12-20T12:49:01;101.72;;;45.75;;
49392;SDS011;35268;42.642;23.308;2023-12-20T12:51:26;92.15;;;41.97;;
49392;SDS011;35268;42.642;23.308;2023-12-20T12:53:51;97.53;;;43.13;;
49392;SDS011;35268;42.642;23.308;2023-12-20T12:56:17;88.95;;;42.13;;
49392;SDS011;35268;42.642;23.308;2023-12-20T12:58:43;91.53;;;41.97;;
49392;SDS011;35268;42.642;23.308;2023-12-20T13:01:08;106.43;;;42.72;;
49392;SDS011;35268;42.642;23.308;2023-12-20T13:03:34;97.32;;;43.55;;
49392;SDS011;35268;42.642;23.308;2023-12-20T13:06:00;100.72;;;44.75;;
49392;SDS011;35268;42.642;23.308;2023-12-20T13:08:26;113.32;;;46.15;;
49392;SDS011;35268;42.642;23.308;2023-12-20T13:10:53;97.93;;;44.20;;
49392;SDS011;35268;42.642;23.308;2023-12-20T13:13:19;101.15;;;45.58;;
49392;SDS011;35268;42.642;23.308;2023-12-20T13:15:44;108.55;;;46.33;;
49392;SDS011;35268;42.642;23.308;2023-12-20T13:18:17;108.82;;;49.70;;
49392;SDS011;35268;42.642;23.308;2023-12-20T13:20:47;121.15;;;51.40;;
49392;SDS011;35268;42.642;23.308;2023-12-20T13:23:12;123.57;;;51.70;;
49392;SDS011;35268;42.642;23.308;2023-12-20T13:25:39;114.93;;;48.92;;
49392;SDS011;35268;42.642;23.308;2023-12-20T13:28:04;107.70;;;49.80;;
49392;SDS011;35268;42.642;23.308;2023-12-20T13:30:30;110.28;;;48.45;;
49392;SDS011;35268;42.642;23.308;2023-12-20T13:32:55;110.20;;;45.55;;
49392;SDS011;35268;42.642;23.308;2023-12-20T13:35:20;109.72;;;45.85;;
49392;SDS011;35268;42.642;23.308;2023-12-20T13:37:46;104.32;;;46.75;;
49392;SDS011;35268;42.642;23.308;2023-12-20T13:40:12;102.13;;;45.92;;
49392;SDS011;35268;42.642;23.308;2023-12-20T13:42:37;102.25;;;46.22;;
49392;SDS011;35268;42.642;23.308;2023-12-20T13:45:03;118.40;;;50.47;;
49392;SDS011;35268;42.642;23.308;2023-12-20T13:47:30;99.03;;;49.35;;
49392;SDS011;35268;42.642;23.308;2023-12-20T13:49:56;119.75;;;49.80;;
49392;SDS011;35268;42.642;23.308;2023-12-20T13:52:21;118.63;;;52.42;;
49392;SDS011;35268;42.642;23.308;2023-12-20T13:54:46;100.07;;;47.03;;
49392;SDS011;35268;42.642;23.308;2023-12-20T13:57:12;104.97;;;47.55;;
49392;SDS011;35268;42.642;23.308;2023-12-20T13:59:38;101.53;;;45.80;;
49392;SDS011;35268;42.642;23.308;2023-12-20T14:02:03;102.10;;;46.50;;
49392;SDS011;35268;42.642;23.308;2023-12-20T14:04:29;103.85;;;46.83;;
49392;SDS011;35268;42.642;23.308;2023-12-20T14:06:54;101.00;;;46.17;;